ΕΜΥ, Εθνική Μετεωρολογική Υπηρεσία - Δελτία Καιρού, Προγνώσεις

ΑΕΡΟΝΑΥΤΙΛΙΑ

GREEK AIRPORTS CODES

TAF LGMT 041100Z 0412/0421 35010KT 9999 FEW020=

EUROPEAN AIRPORTS CODES

UUWW 041100Z 24005MPS 8000 -SHRA BKN016CB 22/19 Q1013R24/290050 TEMPO -TSRA BKN025CB=